sensor_id;sensor_type;location;lat;lon;timestamp;P1;durP1;ratioP1;P2;durP2;ratioP2
17858;SDS011;35426;30.698;104.050;2024-01-30T00:00:35;170.77;;;60.00;;
17858;SDS011;35426;30.698;104.050;2024-01-30T00:03:08;170.90;;;59.70;;
17858;SDS011;35426;30.698;104.050;2024-01-30T00:05:42;168.40;;;61.07;;
17858;SDS011;35426;30.698;104.050;2024-01-30T00:08:17;158.87;;;59.70;;
17858;SDS011;35426;30.698;104.050;2024-01-30T00:10:52;163.03;;;59.67;;
17858;SDS011;35426;30.698;104.050;2024-01-30T00:13:25;154.00;;;58.77;;
17858;SDS011;35426;30.698;104.050;2024-01-30T00:15:58;166.73;;;60.40;;
17858;SDS011;35426;30.698;104.050;2024-01-30T00:18:33;161.77;;;58.73;;
17858;SDS011;35426;30.698;104.050;2024-01-30T00:21:07;155.47;;;59.10;;
17858;SDS011;35426;30.698;104.050;2024-01-30T00:23:43;158.73;;;58.03;;
17858;SDS011;35426;30.698;104.050;2024-01-30T00:26:16;160.20;;;59.43;;
17858;SDS011;35426;30.698;104.050;2024-01-30T00:28:50;155.27;;;56.87;;
17858;SDS011;35426;30.698;104.050;2024-01-30T00:31:23;162.10;;;58.83;;
17858;SDS011;35426;30.698;104.050;2024-01-30T00:33:56;169.23;;;59.13;;
17858;SDS011;35426;30.698;104.050;2024-01-30T00:36:29;158.93;;;59.40;;
17858;SDS011;35426;30.698;104.050;2024-01-30T00:39:05;159.67;;;59.50;;
17858;SDS011;35426;30.698;104.050;2024-01-30T00:41:39;184.10;;;61.37;;
17858;SDS011;35426;30.698;104.050;2024-01-30T00:44:12;166.27;;;57.93;;
17858;SDS011;35426;30.698;104.050;2024-01-30T00:46:45;164.63;;;59.10;;
17858;SDS011;35426;30.698;104.050;2024-01-30T00:49:19;157.33;;;59.30;;
17858;SDS011;35426;30.698;104.050;2024-01-30T00:51:53;163.40;;;58.57;;
17858;SDS011;35426;30.698;104.050;2024-01-30T00:54:28;156.70;;;58.07;;
17858;SDS011;35426;30.698;104.050;2024-01-30T00:57:02;157.67;;;57.83;;
17858;SDS011;35426;30.698;104.050;2024-01-30T00:59:36;168.07;;;59.93;;
17858;SDS011;35426;30.698;104.050;2024-01-30T01:02:10;168.50;;;59.67;;
17858;SDS011;35426;30.698;104.050;2024-01-30T01:04:44;170.30;;;59.53;;
17858;SDS011;35426;30.698;104.050;2024-01-30T01:07:18;160.33;;;60.23;;
17858;SDS011;35426;30.698;104.050;2024-01-30T01:09:54;154.77;;;58.63;;
17858;SDS011;35426;30.698;104.050;2024-01-30T01:12:28;170.73;;;61.37;;
17858;SDS011;35426;30.698;104.050;2024-01-30T01:15:01;162.57;;;60.70;;
17858;SDS011;35426;30.698;104.050;2024-01-30T01:17:34;167.53;;;61.10;;
17858;SDS011;35426;30.698;104.050;2024-01-30T01:20:08;163.97;;;59.67;;
17858;SDS011;35426;30.698;104.050;2024-01-30T01:22:42;168.17;;;58.70;;
17858;SDS011;35426;30.698;104.050;2024-01-30T01:25:18;160.43;;;59.50;;
17858;SDS011;35426;30.698;104.050;2024-01-30T01:27:52;167.03;;;61.23;;
17858;SDS011;35426;30.698;104.050;2024-01-30T01:30:25;165.33;;;59.60;;
17858;SDS011;35426;30.698;104.050;2024-01-30T01:32:59;169.83;;;60.23;;
17858;SDS011;35426;30.698;104.050;2024-01-30T01:35:32;164.90;;;59.33;;
17858;SDS011;35426;30.698;104.050;2024-01-30T01:38:06;172.97;;;62.00;;
17858;SDS011;35426;30.698;104.050;2024-01-30T01:40:41;170.33;;;64.40;;
17858;SDS011;35426;30.698;104.050;2024-01-30T01:43:15;165.03;;;61.10;;
17858;SDS011;35426;30.698;104.050;2024-01-30T01:45:49;174.10;;;61.30;;
17858;SDS011;35426;30.698;104.050;2024-01-30T01:48:22;160.67;;;61.87;;
17858;SDS011;35426;30.698;104.050;2024-01-30T01:50:56;172.53;;;61.37;;
17858;SDS011;35426;30.698;104.050;2024-01-30T01:53:30;172.67;;;62.67;;
17858;SDS011;35426;30.698;104.050;2024-01-30T01:56:07;167.37;;;61.90;;
17858;SDS011;35426;30.698;104.050;2024-01-30T02:01:32;162.70;;;58.60;;
17858;SDS011;35426;30.698;104.050;2024-01-30T02:04:06;164.47;;;60.70;;
17858;SDS011;35426;30.698;104.050;2024-01-30T02:06:39;174.37;;;59.37;;
17858;SDS011;35426;30.698;104.050;2024-01-30T02:09:13;165.20;;;59.77;;
17858;SDS011;35426;30.698;104.050;2024-01-30T02:11:48;163.00;;;59.43;;
17858;SDS011;35426;30.698;104.050;2024-01-30T02:14:22;181.33;;;60.70;;
17858;SDS011;35426;30.698;104.050;2024-01-30T02:16:58;157.30;;;56.87;;
17858;SDS011;35426;30.698;104.050;2024-01-30T02:19:31;173.57;;;58.77;;
17858;SDS011;35426;30.698;104.050;2024-01-30T02:22:08;156.87;;;56.20;;
17858;SDS011;35426;30.698;104.050;2024-01-30T02:24:42;154.50;;;55.80;;
17858;SDS011;35426;30.698;104.050;2024-01-30T02:27:15;163.97;;;59.40;;
17858;SDS011;35426;30.698;104.050;2024-01-30T02:29:49;161.07;;;56.60;;
17858;SDS011;35426;30.698;104.050;2024-01-30T02:32:23;161.77;;;56.90;;
17858;SDS011;35426;30.698;104.050;2024-01-30T02:34:57;146.10;;;54.97;;
17858;SDS011;35426;30.698;104.050;2024-01-30T02:37:33;148.83;;;53.73;;
17858;SDS011;35426;30.698;104.050;2024-01-30T02:40:08;147.20;;;51.33;;
17858;SDS011;35426;30.698;104.050;2024-01-30T02:42:43;149.03;;;53.37;;
17858;SDS011;35426;30.698;104.050;2024-01-30T02:45:17;143.60;;;53.43;;
17858;SDS011;35426;30.698;104.050;2024-01-30T02:47:52;140.50;;;52.57;;
17858;SDS011;35426;30.698;104.050;2024-01-30T02:50:25;150.63;;;50.97;;
17858;SDS011;35426;30.698;104.050;2024-01-30T02:53:01;130.03;;;50.40;;
17858;SDS011;35426;30.698;104.050;2024-01-30T02:55:34;141.27;;;51.00;;
17858;SDS011;35426;30.698;104.050;2024-01-30T02:58:08;138.33;;;51.07;;
17858;SDS011;35426;30.698;104.050;2024-01-30T03:00:42;137.80;;;52.47;;
17858;SDS011;35426;30.698;104.050;2024-01-30T03:03:17;136.27;;;50.50;;
17858;SDS011;35426;30.698;104.050;2024-01-30T03:05:51;148.23;;;50.07;;
17858;SDS011;35426;30.698;104.050;2024-01-30T03:08:28;141.00;;;50.87;;
17858;SDS011;35426;30.698;104.050;2024-01-30T03:11:01;145.87;;;51.57;;
17858;SDS011;35426;30.698;104.050;2024-01-30T03:13:34;142.37;;;51.60;;
17858;SDS011;35426;30.698;104.050;2024-01-30T03:16:08;136.80;;;50.53;;
17858;SDS011;35426;30.698;104.050;2024-01-30T03:18:42;149.83;;;52.17;;
17858;SDS011;35426;30.698;104.050;2024-01-30T03:21:16;147.73;;;49.63;;
17858;SDS011;35426;30.698;104.050;2024-01-30T03:23:52;134.60;;;48.83;;
17858;SDS011;35426;30.698;104.050;2024-01-30T03:26:26;130.77;;;49.33;;
17858;SDS011;35426;30.698;104.050;2024-01-30T03:28:59;135.93;;;48.70;;
17858;SDS011;35426;30.698;104.050;2024-01-30T03:31:32;138.87;;;50.67;;
17858;SDS011;35426;30.698;104.050;2024-01-30T03:34:05;122.20;;;47.57;;
17858;SDS011;35426;30.698;104.050;2024-01-30T03:36:38;132.60;;;48.70;;
17858;SDS011;35426;30.698;104.050;2024-01-30T03:39:14;142.20;;;48.73;;
17858;SDS011;35426;30.698;104.050;2024-01-30T03:41:48;131.63;;;49.90;;
17858;SDS011;35426;30.698;104.050;2024-01-30T03:44:21;128.80;;;47.30;;
17858;SDS011;35426;30.698;104.050;2024-01-30T03:46:54;130.13;;;48.57;;
17858;SDS011;35426;30.698;104.050;2024-01-30T03:49:28;129.40;;;49.47;;
17858;SDS011;35426;30.698;104.050;2024-01-30T03:52:01;145.87;;;48.97;;
17858;SDS011;35426;30.698;104.050;2024-01-30T03:54:37;132.80;;;47.83;;
17858;SDS011;35426;30.698;104.050;2024-01-30T03:57:10;129.63;;;48.67;;
17858;SDS011;35426;30.698;104.050;2024-01-30T03:59:43;133.00;;;47.87;;
17858;SDS011;35426;30.698;104.050;2024-01-30T04:02:17;137.10;;;47.00;;
17858;SDS011;35426;30.698;104.050;2024-01-30T04:04:51;126.23;;;48.37;;
17858;SDS011;35426;30.698;104.050;2024-01-30T04:07:25;124.37;;;49.10;;
17858;SDS011;35426;30.698;104.050;2024-01-30T04:10:00;138.43;;;47.83;;
17858;SDS011;35426;30.698;104.050;2024-01-30T04:12:35;131.53;;;49.97;;
17858;SDS011;35426;30.698;104.050;2024-01-30T04:15:09;131.00;;;48.60;;
17858;SDS011;35426;30.698;104.050;2024-01-30T04:17:42;129.07;;;46.97;;
17858;SDS011;35426;30.698;104.050;2024-01-30T04:20:16;126.90;;;47.93;;
17858;SDS011;35426;30.698;104.050;2024-01-30T04:22:50;133.07;;;47.27;;
17858;SDS011;35426;30.698;104.050;2024-01-30T04:25:26;118.20;;;45.20;;
17858;SDS011;35426;30.698;104.050;2024-01-30T04:27:59;130.27;;;49.03;;
17858;SDS011;35426;30.698;104.050;2024-01-30T04:30:32;131.97;;;47.50;;
17858;SDS011;35426;30.698;104.050;2024-01-30T04:33:06;128.07;;;48.53;;
17858;SDS011;35426;30.698;104.050;2024-01-30T04:35:40;126.17;;;48.70;;
17858;SDS011;35426;30.698;104.050;2024-01-30T04:38:14;126.20;;;48.97;;
17858;SDS011;35426;30.698;104.050;2024-01-30T04:40:49;127.87;;;47.93;;
17858;SDS011;35426;30.698;104.050;2024-01-30T04:43:23;124.90;;;47.13;;
17858;SDS011;35426;30.698;104.050;2024-01-30T04:45:57;128.37;;;47.50;;
17858;SDS011;35426;30.698;104.050;2024-01-30T04:48:31;130.10;;;46.33;;
17858;SDS011;35426;30.698;104.050;2024-01-30T04:51:20;136.90;;;47.27;;
17858;SDS011;35426;30.698;104.050;2024-01-30T04:53:54;127.63;;;47.33;;
17858;SDS011;35426;30.698;104.050;2024-01-30T04:56:29;141.27;;;49.13;;
17858;SDS011;35426;30.698;104.050;2024-01-30T04:59:03;132.73;;;48.73;;
17858;SDS011;35426;30.698;104.050;2024-01-30T05:01:37;127.47;;;45.80;;
17858;SDS011;35426;30.698;104.050;2024-01-30T05:04:11;130.83;;;47.37;;
17858;SDS011;35426;30.698;104.050;2024-01-30T05:06:44;142.50;;;46.97;;
17858;SDS011;35426;30.698;104.050;2024-01-30T05:09:18;128.63;;;47.30;;
17858;SDS011;35426;30.698;104.050;2024-01-30T05:11:53;126.67;;;46.87;;
17858;SDS011;35426;30.698;104.050;2024-01-30T05:14:27;131.37;;;47.07;;
17858;SDS011;35426;30.698;104.050;2024-01-30T05:17:03;111.87;;;43.73;;
17858;SDS011;35426;30.698;104.050;2024-01-30T05:19:37;122.10;;;43.93;;
17858;SDS011;35426;30.698;104.050;2024-01-30T05:22:11;115.67;;;44.57;;
17858;SDS011;35426;30.698;104.050;2024-01-30T05:24:48;129.77;;;46.10;;
17858;SDS011;35426;30.698;104.050;2024-01-30T05:27:24;119.47;;;43.67;;
17858;SDS011;35426;30.698;104.050;2024-01-30T05:29:58;130.13;;;47.83;;
17858;SDS011;35426;30.698;104.050;2024-01-30T05:32:31;116.67;;;44.63;;
17858;SDS011;35426;30.698;104.050;2024-01-30T05:35:04;132.30;;;46.50;;
17858;SDS011;35426;30.698;104.050;2024-01-30T05:37:38;118.83;;;45.70;;
17858;SDS011;35426;30.698;104.050;2024-01-30T05:40:12;122.77;;;47.13;;
17858;SDS011;35426;30.698;104.050;2024-01-30T05:42:48;133.00;;;47.77;;
17858;SDS011;35426;30.698;104.050;2024-01-30T05:45:22;126.77;;;47.03;;
17858;SDS011;35426;30.698;104.050;2024-01-30T05:47:55;126.70;;;46.73;;
17858;SDS011;35426;30.698;104.050;2024-01-30T05:50:29;116.87;;;46.33;;
17858;SDS011;35426;30.698;104.050;2024-01-30T05:53:03;120.97;;;45.60;;
17858;SDS011;35426;30.698;104.050;2024-01-30T05:55:36;120.73;;;47.90;;
17858;SDS011;35426;30.698;104.050;2024-01-30T05:58:12;127.30;;;46.33;;
17858;SDS011;35426;30.698;104.050;2024-01-30T06:00:45;120.60;;;45.07;;
17858;SDS011;35426;30.698;104.050;2024-01-30T06:03:19;127.57;;;46.43;;
17858;SDS011;35426;30.698;104.050;2024-01-30T06:05:53;116.07;;;45.70;;
17858;SDS011;35426;30.698;104.050;2024-01-30T06:08:27;121.97;;;45.63;;
17858;SDS011;35426;30.698;104.050;2024-01-30T06:11:00;133.23;;;47.60;;
17858;SDS011;35426;30.698;104.050;2024-01-30T06:13:54;123.40;;;46.03;;
17858;SDS011;35426;30.698;104.050;2024-01-30T06:16:28;123.10;;;46.63;;
17858;SDS011;35426;30.698;104.050;2024-01-30T06:19:01;128.47;;;48.57;;
17858;SDS011;35426;30.698;104.050;2024-01-30T06:21:35;130.60;;;47.93;;
17858;SDS011;35426;30.698;104.050;2024-01-30T06:24:08;125.27;;;46.47;;
17858;SDS011;35426;30.698;104.050;2024-01-30T06:26:42;121.90;;;48.13;;
17858;SDS011;35426;30.698;104.050;2024-01-30T06:29:17;137.83;;;47.57;;
17858;SDS011;35426;30.698;104.050;2024-01-30T06:31:50;131.10;;;49.00;;
17858;SDS011;35426;30.698;104.050;2024-01-30T06:34:24;139.87;;;48.47;;
17858;SDS011;35426;30.698;104.050;2024-01-30T06:36:58;132.10;;;48.23;;
17858;SDS011;35426;30.698;104.050;2024-01-30T06:39:31;135.27;;;48.33;;
17858;SDS011;35426;30.698;104.050;2024-01-30T06:42:05;139.40;;;49.00;;
17858;SDS011;35426;30.698;104.050;2024-01-30T06:44:40;122.67;;;48.00;;
17858;SDS011;35426;30.698;104.050;2024-01-30T06:47:14;130.67;;;48.93;;
17858;SDS011;35426;30.698;104.050;2024-01-30T06:49:47;134.37;;;50.37;;
17858;SDS011;35426;30.698;104.050;2024-01-30T06:52:21;139.23;;;50.23;;
17858;SDS011;35426;30.698;104.050;2024-01-30T06:54:55;127.33;;;49.60;;
17858;SDS011;35426;30.698;104.050;2024-01-30T06:57:28;137.97;;;50.27;;
17858;SDS011;35426;30.698;104.050;2024-01-30T07:00:03;139.10;;;50.57;;
17858;SDS011;35426;30.698;104.050;2024-01-30T07:02:38;136.37;;;49.43;;
17858;SDS011;35426;30.698;104.050;2024-01-30T07:05:12;134.63;;;48.70;;
17858;SDS011;35426;30.698;104.050;2024-01-30T07:07:47;141.80;;;50.43;;
17858;SDS011;35426;30.698;104.050;2024-01-30T07:10:20;141.70;;;49.10;;
17858;SDS011;35426;30.698;104.050;2024-01-30T07:12:54;134.17;;;51.43;;
17858;SDS011;35426;30.698;104.050;2024-01-30T07:15:30;138.30;;;51.40;;
17858;SDS011;35426;30.698;104.050;2024-01-30T07:18:04;140.80;;;50.97;;
17858;SDS011;35426;30.698;104.050;2024-01-30T07:20:39;140.17;;;50.67;;
17858;SDS011;35426;30.698;104.050;2024-01-30T07:23:16;141.00;;;52.43;;
17858;SDS011;35426;30.698;104.050;2024-01-30T07:25:49;153.27;;;52.13;;
17858;SDS011;35426;30.698;104.050;2024-01-30T07:28:23;142.70;;;52.37;;
17858;SDS011;35426;30.698;104.050;2024-01-30T07:30:58;142.13;;;52.60;;
17858;SDS011;35426;30.698;104.050;2024-01-30T07:33:32;140.60;;;51.03;;
17858;SDS011;35426;30.698;104.050;2024-01-30T07:36:06;144.27;;;52.10;;
17858;SDS011;35426;30.698;104.050;2024-01-30T07:38:40;142.50;;;52.93;;
17858;SDS011;35426;30.698;104.050;2024-01-30T07:41:13;149.03;;;52.67;;
17858;SDS011;35426;30.698;104.050;2024-01-30T07:43:47;139.77;;;51.93;;
17858;SDS011;35426;30.698;104.050;2024-01-30T07:46:24;148.07;;;55.17;;
17858;SDS011;35426;30.698;104.050;2024-01-30T07:48:58;148.40;;;54.33;;
17858;SDS011;35426;30.698;104.050;2024-01-30T07:51:31;150.67;;;54.67;;
17858;SDS011;35426;30.698;104.050;2024-01-30T07:54:05;148.93;;;53.27;;
17858;SDS011;35426;30.698;104.050;2024-01-30T07:56:45;150.80;;;54.33;;
17858;SDS011;35426;30.698;104.050;2024-01-30T07:59:19;155.43;;;56.53;;
17858;SDS011;35426;30.698;104.050;2024-01-30T08:01:56;154.67;;;55.03;;
17858;SDS011;35426;30.698;104.050;2024-01-30T08:04:30;153.60;;;55.27;;
17858;SDS011;35426;30.698;104.050;2024-01-30T08:07:04;159.97;;;56.40;;
17858;SDS011;35426;30.698;104.050;2024-01-30T08:09:38;154.80;;;53.97;;
17858;SDS011;35426;30.698;104.050;2024-01-30T08:12:13;154.07;;;55.43;;
17858;SDS011;35426;30.698;104.050;2024-01-30T08:14:46;153.63;;;55.73;;
17858;SDS011;35426;30.698;104.050;2024-01-30T08:17:22;157.37;;;55.60;;
17858;SDS011;35426;30.698;104.050;2024-01-30T08:19:56;154.67;;;56.07;;
17858;SDS011;35426;30.698;104.050;2024-01-30T08:22:31;165.33;;;56.97;;
17858;SDS011;35426;30.698;104.050;2024-01-30T08:25:05;147.13;;;55.13;;
17858;SDS011;35426;30.698;104.050;2024-01-30T08:27:39;154.77;;;57.23;;
17858;SDS011;35426;30.698;104.050;2024-01-30T08:30:13;156.40;;;57.57;;
17858;SDS011;35426;30.698;104.050;2024-01-30T08:32:49;164.73;;;56.83;;
17858;SDS011;35426;30.698;104.050;2024-01-30T08:35:24;165.77;;;58.53;;
17858;SDS011;35426;30.698;104.050;2024-01-30T08:38:01;167.53;;;56.03;;
17858;SDS011;35426;30.698;104.050;2024-01-30T08:40:35;155.67;;;56.40;;
17858;SDS011;35426;30.698;104.050;2024-01-30T08:43:09;158.43;;;56.67;;
17858;SDS011;35426;30.698;104.050;2024-01-30T08:45:42;153.70;;;56.17;;
17858;SDS011;35426;30.698;104.050;2024-01-30T08:48:18;174.60;;;57.03;;
17858;SDS011;35426;30.698;104.050;2024-01-30T08:50:52;163.33;;;59.40;;
17858;SDS011;35426;30.698;104.050;2024-01-30T08:53:26;161.73;;;58.23;;
17858;SDS011;35426;30.698;104.050;2024-01-30T08:56:00;176.30;;;57.37;;
17858;SDS011;35426;30.698;104.050;2024-01-30T08:58:40;163.57;;;58.20;;
17858;SDS011;35426;30.698;104.050;2024-01-30T09:01:17;166.80;;;58.63;;
17858;SDS011;35426;30.698;104.050;2024-01-30T09:03:53;164.57;;;59.80;;
17858;SDS011;35426;30.698;104.050;2024-01-30T09:06:27;168.97;;;58.80;;
17858;SDS011;35426;30.698;104.050;2024-01-30T09:09:01;163.70;;;57.53;;
17858;SDS011;35426;30.698;104.050;2024-01-30T09:11:34;172.70;;;58.20;;
17858;SDS011;35426;30.698;104.050;2024-01-30T09:14:08;180.00;;;60.67;;
17858;SDS011;35426;30.698;104.050;2024-01-30T09:16:42;174.07;;;59.80;;
17858;SDS011;35426;30.698;104.050;2024-01-30T09:19:17;164.07;;;57.73;;
17858;SDS011;35426;30.698;104.050;2024-01-30T09:22:02;164.10;;;60.90;;
17858;SDS011;35426;30.698;104.050;2024-01-30T09:24:37;169.47;;;61.50;;
17858;SDS011;35426;30.698;104.050;2024-01-30T09:27:29;167.27;;;58.23;;
17858;SDS011;35426;30.698;104.050;2024-01-30T09:30:06;179.80;;;61.10;;
17858;SDS011;35426;30.698;104.050;2024-01-30T09:32:42;172.63;;;59.03;;
17858;SDS011;35426;30.698;104.050;2024-01-30T09:35:29;165.00;;;59.57;;
17858;SDS011;35426;30.698;104.050;2024-01-30T09:38:08;178.10;;;64.77;;
17858;SDS011;35426;30.698;104.050;2024-01-30T09:40:42;184.53;;;65.07;;
17858;SDS011;35426;30.698;104.050;2024-01-30T09:43:16;188.03;;;63.20;;
17858;SDS011;35426;30.698;104.050;2024-01-30T09:45:54;175.27;;;60.13;;
17858;SDS011;35426;30.698;104.050;2024-01-30T09:48:28;167.90;;;60.30;;
17858;SDS011;35426;30.698;104.050;2024-01-30T09:51:05;172.83;;;58.43;;
17858;SDS011;35426;30.698;104.050;2024-01-30T09:53:38;169.23;;;57.33;;
17858;SDS011;35426;30.698;104.050;2024-01-30T09:56:13;166.63;;;60.93;;
17858;SDS011;35426;30.698;104.050;2024-01-30T09:58:47;171.43;;;58.60;;
17858;SDS011;35426;30.698;104.050;2024-01-30T10:01:20;162.80;;;59.90;;
17858;SDS011;35426;30.698;104.050;2024-01-30T10:03:54;174.50;;;60.37;;
17858;SDS011;35426;30.698;104.050;2024-01-30T10:06:29;171.20;;;59.33;;
17858;SDS011;35426;30.698;104.050;2024-01-30T10:09:03;169.43;;;61.60;;
17858;SDS011;35426;30.698;104.050;2024-01-30T10:11:36;170.50;;;58.90;;
17858;SDS011;35426;30.698;104.050;2024-01-30T10:14:09;171.83;;;59.63;;
17858;SDS011;35426;30.698;104.050;2024-01-30T10:16:43;167.50;;;58.63;;
17858;SDS011;35426;30.698;104.050;2024-01-30T10:19:19;173.40;;;59.97;;
17858;SDS011;35426;30.698;104.050;2024-01-30T10:21:54;173.80;;;59.23;;
17858;SDS011;35426;30.698;104.050;2024-01-30T10:24:27;187.00;;;61.37;;
17858;SDS011;35426;30.698;104.050;2024-01-30T10:27:01;177.87;;;58.70;;
17858;SDS011;35426;30.698;104.050;2024-01-30T10:29:34;188.20;;;62.70;;
17858;SDS011;35426;30.698;104.050;2024-01-30T10:32:10;181.80;;;59.33;;
17858;SDS011;35426;30.698;104.050;2024-01-30T10:34:43;176.37;;;58.83;;
17858;SDS011;35426;30.698;104.050;2024-01-30T10:37:20;171.37;;;59.80;;
17858;SDS011;35426;30.698;104.050;2024-01-30T10:39:55;167.87;;;60.53;;
17858;SDS011;35426;30.698;104.050;2024-01-30T10:42:51;176.07;;;58.93;;
17858;SDS011;35426;30.698;104.050;2024-01-30T10:45:29;174.33;;;61.27;;
17858;SDS011;35426;30.698;104.050;2024-01-30T10:48:03;169.80;;;59.23;;
17858;SDS011;35426;30.698;104.050;2024-01-30T10:50:39;186.60;;;61.60;;
17858;SDS011;35426;30.698;104.050;2024-01-30T10:53:26;181.33;;;60.07;;
17858;SDS011;35426;30.698;104.050;2024-01-30T10:56:01;173.23;;;59.60;;
17858;SDS011;35426;30.698;104.050;2024-01-30T10:58:35;181.27;;;59.97;;
17858;SDS011;35426;30.698;104.050;2024-01-30T11:01:09;175.03;;;62.00;;
17858;SDS011;35426;30.698;104.050;2024-01-30T11:03:43;184.87;;;61.73;;
17858;SDS011;35426;30.698;104.050;2024-01-30T11:06:17;172.70;;;58.37;;
17858;SDS011;35426;30.698;104.050;2024-01-30T11:09:03;187.30;;;61.70;;
17858;SDS011;35426;30.698;104.050;2024-01-30T11:11:51;176.43;;;60.63;;
17858;SDS011;35426;30.698;104.050;2024-01-30T11:14:29;180.07;;;61.93;;
17858;SDS011;35426;30.698;104.050;2024-01-30T11:17:04;191.17;;;63.90;;
17858;SDS011;35426;30.698;104.050;2024-01-30T11:19:37;177.10;;;62.43;;
17858;SDS011;35426;30.698;104.050;2024-01-30T11:22:11;190.00;;;64.27;;
17858;SDS011;35426;30.698;104.050;2024-01-30T11:24:47;190.00;;;62.67;;
17858;SDS011;35426;30.698;104.050;2024-01-30T11:27:20;193.80;;;64.77;;
17858;SDS011;35426;30.698;104.050;2024-01-30T11:30:01;191.40;;;65.57;;
17858;SDS011;35426;30.698;104.050;2024-01-30T11:32:34;194.33;;;66.37;;
17858;SDS011;35426;30.698;104.050;2024-01-30T11:35:08;194.97;;;66.37;;
17858;SDS011;35426;30.698;104.050;2024-01-30T11:37:43;187.97;;;64.93;;
17858;SDS011;35426;30.698;104.050;2024-01-30T11:40:21;185.23;;;63.07;;
17858;SDS011;35426;30.698;104.050;2024-01-30T11:42:55;187.20;;;64.93;;
17858;SDS011;35426;30.698;104.050;2024-01-30T11:45:29;188.37;;;63.57;;
17858;SDS011;35426;30.698;104.050;2024-01-30T11:48:04;198.10;;;65.23;;
17858;SDS011;35426;30.698;104.050;2024-01-30T11:50:40;194.77;;;66.77;;
17858;SDS011;35426;30.698;104.050;2024-01-30T11:53:13;201.77;;;65.00;;
17858;SDS011;35426;30.698;104.050;2024-01-30T11:55:52;183.83;;;66.03;;
17858;SDS011;35426;30.698;104.050;2024-01-30T11:58:29;205.23;;;68.40;;
17858;SDS011;35426;30.698;104.050;2024-01-30T12:01:03;213.03;;;67.23;;
17858;SDS011;35426;30.698;104.050;2024-01-30T12:03:36;201.13;;;68.03;;
17858;SDS011;35426;30.698;104.050;2024-01-30T12:06:11;194.60;;;65.10;;
17858;SDS011;35426;30.698;104.050;2024-01-30T12:08:55;208.90;;;67.80;;
17858;SDS011;35426;30.698;104.050;2024-01-30T12:11:31;215.37;;;66.83;;
17858;SDS011;35426;30.698;104.050;2024-01-30T12:14:05;209.33;;;69.50;;
17858;SDS011;35426;30.698;104.050;2024-01-30T12:16:38;193.53;;;67.77;;
17858;SDS011;35426;30.698;104.050;2024-01-30T12:19:21;198.77;;;71.40;;
17858;SDS011;35426;30.698;104.050;2024-01-30T12:21:55;205.30;;;70.47;;
17858;SDS011;35426;30.698;104.050;2024-01-30T12:24:30;200.27;;;70.20;;
17858;SDS011;35426;30.698;104.050;2024-01-30T12:27:06;217.37;;;73.30;;
17858;SDS011;35426;30.698;104.050;2024-01-30T12:29:41;203.67;;;68.13;;
17858;SDS011;35426;30.698;104.050;2024-01-30T12:35:40;225.90;;;70.80;;
17858;SDS011;35426;30.698;104.050;2024-01-30T12:38:29;217.30;;;71.27;;
17858;SDS011;35426;30.698;104.050;2024-01-30T12:41:03;211.63;;;73.87;;
17858;SDS011;35426;30.698;104.050;2024-01-30T12:43:38;199.33;;;70.40;;
17858;SDS011;35426;30.698;104.050;2024-01-30T12:46:11;210.10;;;71.03;;
17858;SDS011;35426;30.698;104.050;2024-01-30T12:48:45;217.10;;;71.63;;
17858;SDS011;35426;30.698;104.050;2024-01-30T12:51:18;209.27;;;75.40;;
17858;SDS011;35426;30.698;104.050;2024-01-30T12:53:52;225.37;;;74.10;;
17858;SDS011;35426;30.698;104.050;2024-01-30T12:56:26;221.87;;;75.40;;
17858;SDS011;35426;30.698;104.050;2024-01-30T12:59:01;220.40;;;71.57;;
17858;SDS011;35426;30.698;104.050;2024-01-30T13:01:35;221.40;;;74.40;;
17858;SDS011;35426;30.698;104.050;2024-01-30T13:04:10;218.67;;;72.57;;
17858;SDS011;35426;30.698;104.050;2024-01-30T13:06:44;214.97;;;73.77;;
17858;SDS011;35426;30.698;104.050;2024-01-30T13:09:18;221.57;;;74.30;;
17858;SDS011;35426;30.698;104.050;2024-01-30T13:11:52;218.70;;;74.50;;
17858;SDS011;35426;30.698;104.050;2024-01-30T13:14:28;206.80;;;72.03;;
17858;SDS011;35426;30.698;104.050;2024-01-30T13:17:01;218.63;;;73.43;;
17858;SDS011;35426;30.698;104.050;2024-01-30T13:19:36;222.27;;;74.77;;
17858;SDS011;35426;30.698;104.050;2024-01-30T13:22:09;216.60;;;71.03;;
17858;SDS011;35426;30.698;104.050;2024-01-30T13:24:43;217.93;;;71.70;;
17858;SDS011;35426;30.698;104.050;2024-01-30T13:27:16;203.07;;;73.40;;
17858;SDS011;35426;30.698;104.050;2024-01-30T13:29:54;210.67;;;73.10;;
17858;SDS011;35426;30.698;104.050;2024-01-30T13:32:29;201.90;;;71.73;;
17858;SDS011;35426;30.698;104.050;2024-01-30T13:35:05;213.03;;;73.37;;
17858;SDS011;35426;30.698;104.050;2024-01-30T13:37:40;234.77;;;75.67;;
17858;SDS011;35426;30.698;104.050;2024-01-30T13:40:13;222.30;;;72.30;;
17858;SDS011;35426;30.698;104.050;2024-01-30T13:42:47;217.10;;;73.27;;
17858;SDS011;35426;30.698;104.050;2024-01-30T13:45:22;232.20;;;73.90;;
17858;SDS011;35426;30.698;104.050;2024-01-30T13:47:57;219.27;;;73.93;;
17858;SDS011;35426;30.698;104.050;2024-01-30T13:50:32;208.07;;;72.70;;
17858;SDS011;35426;30.698;104.050;2024-01-30T13:53:06;213.83;;;72.97;;
17858;SDS011;35426;30.698;104.050;2024-01-30T13:55:41;218.37;;;74.43;;
17858;SDS011;35426;30.698;104.050;2024-01-30T13:58:15;216.80;;;73.83;;
17858;SDS011;35426;30.698;104.050;2024-01-30T14:00:50;210.27;;;75.40;;
17858;SDS011;35426;30.698;104.050;2024-01-30T14:03:23;211.77;;;72.90;;
17858;SDS011;35426;30.698;104.050;2024-01-30T14:05:57;207.93;;;72.47;;
17858;SDS011;35426;30.698;104.050;2024-01-30T14:08:32;226.30;;;76.83;;
17858;SDS011;35426;30.698;104.050;2024-01-30T14:11:05;221.13;;;75.87;;
17858;SDS011;35426;30.698;104.050;2024-01-30T14:13:39;204.03;;;72.57;;
17858;SDS011;35426;30.698;104.050;2024-01-30T14:16:15;208.13;;;73.23;;
17858;SDS011;35426;30.698;104.050;2024-01-30T14:18:49;230.23;;;76.03;;
17858;SDS011;35426;30.698;104.050;2024-01-30T14:21:22;204.43;;;73.13;;
17858;SDS011;35426;30.698;104.050;2024-01-30T14:23:57;210.60;;;73.30;;
17858;SDS011;35426;30.698;104.050;2024-01-30T14:26:31;222.53;;;75.60;;
17858;SDS011;35426;30.698;104.050;2024-01-30T14:29:05;216.47;;;75.23;;
17858;SDS011;35426;30.698;104.050;2024-01-30T14:31:41;226.07;;;73.73;;